createdAt,value
2022-11-03T00:00:20.347Z,13.13
2022-11-03T00:01:21.822Z,14.45
2022-11-03T00:02:23.436Z,13.45
2022-11-03T00:03:24.980Z,14.77
2022-11-03T00:04:26.497Z,13.13
2022-11-03T00:05:27.918Z,13.25
2022-11-03T00:06:29.400Z,14.55
2022-11-03T00:07:30.872Z,14.07
2022-11-03T00:08:33.950Z,14.52
2022-11-03T00:09:35.901Z,15.35
2022-11-03T00:10:37.340Z,14.27
2022-11-03T00:11:42.230Z,14.77
2022-11-03T00:12:43.675Z,14.45
2022-11-03T00:13:45.166Z,14.18
2022-11-03T00:14:46.619Z,16.30
2022-11-03T00:15:48.608Z,16.13
2022-11-03T00:16:50.047Z,15.18
2022-11-03T00:17:51.537Z,15.50
2022-11-03T00:18:53.297Z,15.40
2022-11-03T00:19:54.768Z,15.43
2022-11-03T00:20:58.258Z,14.13
2022-11-03T00:21:59.728Z,16.15
2022-11-03T00:23:01.161Z,15.43
2022-11-03T00:24:03.202Z,17.50
2022-11-03T00:25:05.499Z,14.35
2022-11-03T00:26:09.712Z,27.50
2022-11-03T00:27:12.465Z,35.97
2022-11-03T00:28:13.923Z,35.67
2022-11-03T00:29:15.480Z,17.02
2022-11-03T00:30:17.009Z,19.10
2022-11-03T00:31:20.318Z,20.35
2022-11-03T00:32:22.064Z,21.77
2022-11-03T00:33:23.536Z,24.63
2022-11-03T00:34:24.946Z,30.15
2022-11-03T00:35:26.386Z,23.08
2022-11-03T00:36:29.910Z,24.77
2022-11-03T00:37:31.401Z,26.67
2022-11-03T00:38:33.328Z,28.45
2022-11-03T00:39:34.847Z,24.05
2022-11-03T00:40:36.260Z,31.92
2022-11-03T00:41:37.882Z,39.88
2022-11-03T00:42:40.654Z,35.05
2022-11-03T00:43:42.178Z,42.88
2022-11-03T00:44:43.589Z,44.03
2022-11-03T00:45:45.055Z,37.97
2022-11-03T00:46:46.498Z,34.38
2022-11-03T00:47:48.007Z,28.67
2022-11-03T00:48:49.920Z,29.30
2022-11-03T00:49:51.365Z,26.95
2022-11-03T00:50:52.804Z,30.70
2022-11-03T00:51:54.249Z,30.05
2022-11-03T00:52:55.688Z,28.90
2022-11-03T00:53:58.375Z,22.88
2022-11-03T00:54:59.816Z,31.60
2022-11-03T00:56:01.722Z,28.65
2022-11-03T00:57:03.362Z,35.63
2022-11-03T00:58:06.143Z,29.23
2022-11-03T00:59:09.351Z,35.28
2022-11-03T01:00:11.965Z,34.97
2022-11-03T01:01:15.641Z,35.30
2022-11-03T01:02:17.277Z,48.22
2022-11-03T01:03:18.806Z,44.85
2022-11-03T01:04:20.323Z,39.85
2022-11-03T01:05:21.768Z,44.35
2022-11-03T01:06:23.200Z,44.90
2022-11-03T01:07:24.647Z,33.75
2022-11-03T01:08:27.705Z,29.67
2022-11-03T01:09:30.946Z,33.85
2022-11-03T01:10:36.326Z,41.05
2022-11-03T01:11:37.807Z,28.15
2022-11-03T01:12:39.242Z,36.83
2022-11-03T01:13:42.011Z,43.55
2022-11-03T01:14:45.840Z,46.92
2022-11-03T01:15:47.285Z,22.35
2022-11-03T01:16:48.758Z,31.50
2022-11-03T01:17:50.297Z,40.40
2022-11-03T01:18:51.743Z,41.15
2022-11-03T01:19:53.728Z,46.35
2022-11-03T01:20:55.695Z,35.85
2022-11-03T01:21:57.150Z,35.30
2022-11-03T01:22:58.563Z,28.67
2022-11-03T01:24:00.283Z,26.48
2022-11-03T01:25:01.709Z,22.27
2022-11-03T01:26:04.408Z,23.63
2022-11-03T01:27:05.858Z,23.67
2022-11-03T01:28:07.307Z,29.08
2022-11-03T01:29:10.139Z,35.70
2022-11-03T01:30:12.101Z,40.05
2022-11-03T01:31:15.766Z,32.15
2022-11-03T01:32:17.300Z,41.25
2022-11-03T01:33:18.753Z,37.75
2022-11-03T01:34:21.390Z,32.42
2022-11-03T01:35:22.832Z,41.97
2022-11-03T01:36:24.758Z,36.70
2022-11-03T01:37:26.227Z,42.42
2022-11-03T01:38:30.987Z,34.33
2022-11-03T01:39:32.452Z,39.55
2022-11-03T01:40:33.908Z,38.10
2022-11-03T01:41:35.429Z,43.45
2022-11-03T01:42:36.872Z,52.35
2022-11-03T01:43:39.788Z,58.22
2022-11-03T01:44:46.399Z,63.80
2022-11-03T01:45:51.065Z,64.32
2022-11-03T01:46:56.889Z,37.15
2022-11-03T01:49:09.667Z,29.63
2022-11-03T01:50:16.447Z,32.15
2022-11-03T01:51:22.603Z,29.95
2022-11-03T01:52:27.752Z,28.85
2022-11-03T01:53:30.390Z,29.52
2022-11-03T01:54:34.262Z,27.27
2022-11-03T01:55:37.847Z,28.02
2022-11-03T01:56:42.861Z,39.67
2022-11-03T01:57:50.581Z,29.38
2022-11-03T01:58:55.531Z,27.42
2022-11-03T01:59:59.467Z,32.58
2022-11-03T02:01:02.457Z,38.05
2022-11-03T02:02:04.487Z,70.28
2022-11-03T02:03:06.535Z,78.00
2022-11-03T02:04:12.845Z,84.30
2022-11-03T02:05:18.190Z,64.05
2022-11-03T02:06:21.503Z,53.47
2022-11-03T02:07:27.991Z,54.72
2022-11-03T02:08:35.024Z,38.85
2022-11-03T02:09:36.471Z,46.55
2022-11-03T02:10:38.523Z,49.22
2022-11-03T02:11:40.062Z,46.17
2022-11-03T02:12:43.202Z,28.92
2022-11-03T02:13:44.650Z,29.52
2022-11-03T02:14:54.010Z,31.27
2022-11-03T02:15:59.346Z,38.85
2022-11-03T02:17:04.184Z,64.18
2022-11-03T02:18:06.848Z,68.18
2022-11-03T02:19:21.307Z,65.15
2022-11-03T02:20:25.861Z,42.33
2022-11-03T02:21:30.954Z,45.42
2022-11-03T02:22:55.259Z,36.67
2022-11-03T02:24:04.387Z,44.45
2022-11-03T02:25:16.155Z,50.55
2022-11-03T02:26:19.287Z,39.40
2022-11-03T02:27:21.208Z,37.67
2022-11-03T02:28:25.438Z,49.28
2022-11-03T02:29:26.963Z,51.17
2022-11-03T02:30:34.012Z,46.22
2022-11-03T02:31:41.121Z,54.05
2022-11-03T02:32:57.194Z,38.28
2022-11-03T02:34:06.438Z,31.17
2022-11-03T02:35:15.815Z,32.75
2022-11-03T02:36:22.739Z,34.53
2022-11-03T02:37:28.811Z,33.33
2022-11-03T02:38:34.797Z,22.63
2022-11-03T02:39:40.346Z,23.50
2022-11-03T02:40:46.444Z,34.72
2022-11-03T02:41:52.508Z,52.65
2022-11-03T02:42:54.747Z,51.67
2022-11-03T02:43:57.538Z,46.53
2022-11-03T02:45:02.256Z,40.58
2022-11-03T02:46:06.087Z,48.28
2022-11-03T02:47:11.084Z,44.97
2022-11-03T02:48:15.355Z,49.50
2022-11-03T02:49:16.800Z,56.67
2022-11-03T02:50:18.266Z,62.50
2022-11-03T02:51:19.717Z,51.63
2022-11-03T02:52:34.546Z,58.47
2022-11-03T02:53:39.974Z,53.28
2022-11-03T02:54:45.224Z,42.92
2022-11-03T02:55:53.632Z,46.00
2022-11-03T02:57:02.274Z,43.35
2022-11-03T02:58:11.614Z,40.55
2022-11-03T02:59:17.936Z,44.97
2022-11-03T03:00:20.870Z,35.58
2022-11-03T03:01:29.005Z,25.13
2022-11-03T03:02:37.734Z,44.92
2022-11-03T03:03:43.185Z,36.28
2022-11-03T03:04:51.371Z,53.05
2022-11-03T03:05:59.475Z,29.77
2022-11-03T03:07:05.067Z,37.20
2022-11-03T03:08:10.282Z,44.72
2022-11-03T03:09:18.529Z,42.80
2022-11-03T03:10:23.620Z,56.28
2022-11-03T03:11:25.202Z,43.50
2022-11-03T03:12:30.923Z,49.90
2022-11-03T03:13:32.812Z,64.45
2022-11-03T03:14:37.495Z,34.65
2022-11-03T03:15:45.165Z,50.63
2022-11-03T03:16:55.082Z,34.35
2022-11-03T03:18:07.171Z,43.97
2022-11-03T03:19:18.603Z,54.60
2022-11-03T03:21:29.330Z,28.52
2022-11-03T03:22:38.590Z,31.05
2022-11-03T03:23:45.933Z,30.20
2022-11-03T03:24:53.358Z,32.35
2022-11-03T03:25:59.878Z,41.10
2022-11-03T03:27:05.210Z,45.67
2022-11-03T03:28:11.227Z,43.03
2022-11-03T03:29:18.004Z,35.05
2022-11-03T03:30:19.693Z,29.42
2022-11-03T03:31:24.820Z,25.25
2022-11-03T03:32:30.398Z,32.08
2022-11-03T03:33:33.585Z,30.98
2022-11-03T03:34:39.460Z,34.33
2022-11-03T03:35:44.445Z,56.60
2022-11-03T03:36:49.083Z,73.93
2022-11-03T03:37:53.160Z,67.07
2022-11-03T03:38:59.095Z,79.30
2022-11-03T03:40:05.341Z,77.32
2022-11-03T03:41:10.942Z,70.63
2022-11-03T03:42:15.596Z,49.95
2022-11-03T03:43:21.763Z,33.55
2022-11-03T03:44:24.672Z,47.15
2022-11-03T03:45:26.731Z,42.17
2022-11-03T03:46:34.833Z,45.00
2022-11-03T03:47:36.600Z,56.95
2022-11-03T03:48:38.102Z,44.80
2022-11-03T03:49:39.885Z,42.42
2022-11-03T03:50:43.792Z,41.60
2022-11-03T03:51:46.474Z,39.50
2022-11-03T03:52:48.847Z,59.72
2022-11-03T03:53:50.771Z,50.00
2022-11-03T03:54:52.522Z,61.05
2022-11-03T03:55:54.129Z,75.10
2022-11-03T03:57:00.608Z,73.55
2022-11-03T03:58:04.042Z,66.78
2022-11-03T03:59:07.019Z,62.97
2022-11-03T04:00:12.310Z,67.45
2022-11-03T04:01:13.767Z,66.93
2022-11-03T04:02:16.065Z,50.78
2022-11-03T04:03:19.757Z,51.75
2022-11-03T04:04:21.378Z,47.17
2022-11-03T04:05:22.821Z,54.80
2022-11-03T04:06:24.236Z,52.45
2022-11-03T04:07:25.710Z,48.63
2022-11-03T04:08:27.174Z,36.70
2022-11-03T04:09:28.578Z,46.50
2022-11-03T04:10:30.003Z,37.10
2022-11-03T04:11:31.433Z,38.03
2022-11-03T04:12:32.909Z,32.17
2022-11-03T04:13:34.384Z,37.05
2022-11-03T04:14:37.151Z,35.30
2022-11-03T04:15:38.601Z,40.83
2022-11-03T04:16:40.048Z,53.85
2022-11-03T04:17:44.304Z,72.38
2022-11-03T04:18:45.730Z,60.80
2022-11-03T04:19:47.126Z,53.95
2022-11-03T04:20:48.568Z,50.03
2022-11-03T04:21:50.078Z,56.20
2022-11-03T04:22:51.508Z,58.55
2022-11-03T04:23:52.940Z,52.45
2022-11-03T04:24:54.393Z,39.97
2022-11-03T04:25:57.114Z,39.58
2022-11-03T04:27:18.224Z,36.00
2022-11-03T04:28:19.685Z,38.55
2022-11-03T04:29:21.106Z,30.25
2022-11-03T04:30:24.500Z,34.60
2022-11-03T04:31:26.953Z,33.58
2022-11-03T04:32:28.822Z,31.65
2022-11-03T04:33:30.333Z,29.92
2022-11-03T04:34:31.724Z,30.98
2022-11-03T04:35:33.148Z,26.05
2022-11-03T04:36:34.592Z,29.08
2022-11-03T04:37:36.034Z,28.55
2022-11-03T04:38:37.916Z,32.78
2022-11-03T04:39:39.849Z,33.10
2022-11-03T04:40:43.099Z,36.38
2022-11-03T04:41:44.966Z,41.30
2022-11-03T04:42:46.462Z,33.08
2022-11-03T04:43:49.801Z,29.83
2022-11-03T04:44:51.422Z,33.38
2022-11-03T04:45:54.179Z,32.70
2022-11-03T04:46:55.646Z,30.23
2022-11-03T04:47:59.612Z,25.52
2022-11-03T04:49:03.975Z,28.05
2022-11-03T04:50:14.918Z,29.10
2022-11-03T04:51:18.100Z,31.77
2022-11-03T04:52:22.036Z,29.00
2022-11-03T04:53:24.323Z,33.25
2022-11-03T04:54:26.144Z,30.35
2022-11-03T04:55:27.607Z,28.02
2022-11-03T04:56:30.050Z,29.13
2022-11-03T04:57:31.505Z,33.30
2022-11-03T04:58:35.199Z,25.38
2022-11-03T04:59:36.688Z,28.10
2022-11-03T05:00:39.359Z,24.08
2022-11-03T05:01:44.105Z,24.75
2022-11-03T05:02:50.254Z,22.80
2022-11-03T05:03:54.808Z,26.77
2022-11-03T05:04:56.363Z,19.90
2022-11-03T05:06:01.387Z,22.15
2022-11-03T05:07:02.922Z,19.33
2022-11-03T05:08:08.657Z,24.95
2022-11-03T05:09:14.797Z,26.20
2022-11-03T05:10:19.093Z,29.40
2022-11-03T05:11:30.252Z,29.75
2022-11-03T05:12:31.773Z,29.23
2022-11-03T05:13:33.212Z,28.88
2022-11-03T05:14:36.735Z,31.63
2022-11-03T05:15:43.389Z,31.48
2022-11-03T05:16:46.764Z,29.05
2022-11-03T05:17:48.314Z,28.15
2022-11-03T05:18:50.070Z,25.42
2022-11-03T05:19:56.462Z,27.95
2022-11-03T05:21:00.131Z,29.15
2022-11-03T05:22:03.727Z,32.40
2022-11-03T05:23:05.821Z,33.10
2022-11-03T05:24:13.084Z,32.13
2022-11-03T05:25:38.466Z,32.08
2022-11-03T05:26:40.331Z,24.08
2022-11-03T05:27:41.826Z,29.15
2022-11-03T05:28:46.063Z,30.65
2022-11-03T05:29:49.497Z,30.70
2022-11-03T05:30:51.968Z,30.63
2022-11-03T05:31:56.334Z,26.13
2022-11-03T05:32:58.156Z,19.70
2022-11-03T05:34:02.869Z,22.40
2022-11-03T05:35:16.011Z,25.45
2022-11-03T05:36:21.581Z,27.63
2022-11-03T05:37:27.399Z,29.58
2022-11-03T05:38:31.516Z,27.95
2022-11-03T05:39:36.760Z,28.27
2022-11-03T05:40:38.200Z,25.00
2022-11-03T05:41:39.677Z,27.02
2022-11-03T05:42:43.827Z,31.45
2022-11-03T05:43:47.501Z,27.38
2022-11-03T05:44:50.270Z,30.13
2022-11-03T05:45:55.283Z,30.55
2022-11-03T05:47:00.976Z,29.63
2022-11-03T05:48:14.384Z,28.38
2022-11-03T05:49:15.930Z,30.65
2022-11-03T05:50:20.946Z,30.27
2022-11-03T05:51:28.420Z,30.42
2022-11-03T05:52:30.030Z,33.08
2022-11-03T05:53:36.682Z,27.85
2022-11-03T05:54:38.174Z,33.55
2022-11-03T05:55:40.061Z,26.83
2022-11-03T05:56:41.564Z,30.02
2022-11-03T05:57:43.007Z,35.78
2022-11-03T05:58:46.098Z,33.88
2022-11-03T05:59:51.229Z,33.47
2022-11-03T06:00:53.220Z,39.17
2022-11-03T06:01:59.053Z,28.83
2022-11-03T06:03:02.127Z,33.55
2022-11-03T06:04:15.250Z,34.80
2022-11-03T06:05:20.587Z,30.60
2022-11-03T06:06:30.812Z,31.48
2022-11-03T06:07:34.308Z,30.88
2022-11-03T06:08:38.945Z,30.88
2022-11-03T06:09:43.159Z,32.13
2022-11-03T06:10:49.501Z,29.60
2022-11-03T06:11:53.330Z,40.80
2022-11-03T06:12:56.867Z,28.45
2022-11-03T06:13:59.240Z,25.15
2022-11-03T06:15:00.665Z,25.65
2022-11-03T06:16:05.387Z,27.08
2022-11-03T06:17:11.992Z,27.92
2022-11-03T06:18:18.715Z,29.00
2022-11-03T06:19:26.806Z,30.40
2022-11-03T06:20:28.794Z,27.67
2022-11-03T06:21:30.569Z,24.65
2022-11-03T06:22:36.749Z,30.08
2022-11-03T06:23:39.271Z,28.23
2022-11-03T06:24:40.982Z,29.98
2022-11-03T06:25:42.824Z,26.90
2022-11-03T06:26:46.290Z,25.90
2022-11-03T06:27:47.848Z,26.58
2022-11-03T06:28:49.773Z,30.15
2022-11-03T06:29:57.185Z,27.88
2022-11-03T06:30:58.923Z,29.60
2022-11-03T06:32:01.004Z,25.63
2022-11-03T06:33:10.552Z,31.67
2022-11-03T06:34:22.446Z,26.23
2022-11-03T06:35:24.120Z,26.77
2022-11-03T06:36:29.962Z,31.55
2022-11-03T06:37:33.033Z,34.15
2022-11-03T06:38:35.183Z,32.65
2022-11-03T06:39:36.698Z,30.48
2022-11-03T06:40:38.295Z,31.33
2022-11-03T06:41:39.879Z,30.33
2022-11-03T06:42:41.978Z,30.13
2022-11-03T06:43:43.549Z,32.55
2022-11-03T06:44:47.170Z,32.83
2022-11-03T06:45:50.760Z,29.77
2022-11-03T06:46:54.738Z,30.00
2022-11-03T06:47:56.245Z,26.88
2022-11-03T06:49:00.238Z,22.42
2022-11-03T06:50:19.792Z,24.60
2022-11-03T06:51:23.883Z,21.95
2022-11-03T06:52:28.420Z,27.80
2022-11-03T06:53:33.519Z,25.27
2022-11-03T06:54:35.046Z,25.27
2022-11-03T06:55:37.723Z,37.70
2022-11-03T06:56:39.252Z,19.65
2022-11-03T06:57:43.917Z,20.65
2022-11-03T06:58:46.559Z,21.52
2022-11-03T06:59:53.535Z,21.17
2022-11-03T07:01:12.496Z,20.38
2022-11-03T07:02:34.219Z,24.63
2022-11-03T07:04:37.040Z,21.75
2022-11-03T07:05:40.344Z,21.08
2022-11-03T07:06:43.290Z,22.35
2022-11-03T07:07:44.758Z,17.60
2022-11-03T07:08:49.671Z,22.92
2022-11-03T07:09:51.116Z,27.23
2022-11-03T07:11:00.081Z,20.08
2022-11-03T07:12:01.538Z,25.55
2022-11-03T07:13:13.204Z,25.67
2022-11-03T07:14:18.171Z,26.27
2022-11-03T07:15:25.693Z,25.17
2022-11-03T07:16:31.218Z,25.60
2022-11-03T07:17:34.238Z,23.80
2022-11-03T07:18:41.008Z,21.70
2022-11-03T07:19:45.439Z,22.55
2022-11-03T07:20:48.671Z,24.50
2022-11-03T07:21:52.740Z,20.52
2022-11-03T07:22:56.362Z,23.98
2022-11-03T07:24:00.507Z,20.75
2022-11-03T07:25:03.881Z,23.10
2022-11-03T07:26:08.448Z,25.73
2022-11-03T07:27:16.166Z,24.83
2022-11-03T07:28:17.803Z,24.95
2022-11-03T07:29:24.955Z,20.05
2022-11-03T07:30:29.296Z,27.75
2022-11-03T07:31:31.692Z,25.05
2022-11-03T07:32:34.262Z,27.92
2022-11-03T07:33:35.705Z,21.25
2022-11-03T07:34:37.145Z,23.42
2022-11-03T07:36:13.227Z,20.90
2022-11-03T07:37:05.309Z,21.50
2022-11-03T07:38:13.112Z,17.65
2022-11-03T07:39:19.072Z,20.33
2022-11-03T07:40:23.444Z,29.70
2022-11-03T07:41:32.809Z,27.45
2022-11-03T07:42:36.072Z,26.77
2022-11-03T07:43:37.494Z,20.42
2022-11-03T07:44:40.263Z,21.15
2022-11-03T07:45:43.607Z,22.77
2022-11-03T07:46:45.061Z,23.02
2022-11-03T07:47:46.478Z,20.40
2022-11-03T07:48:48.976Z,20.60
2022-11-03T07:49:50.437Z,20.75
2022-11-03T07:50:53.892Z,19.63
2022-11-03T07:51:56.605Z,26.98
2022-11-03T07:52:59.648Z,21.30
2022-11-03T07:54:09.167Z,19.05
2022-11-03T07:55:13.597Z,16.80
2022-11-03T07:56:19.146Z,14.73
2022-11-03T07:57:24.578Z,23.92
2022-11-03T07:58:34.802Z,20.55
2022-11-03T07:59:38.912Z,17.08
2022-11-03T08:00:40.395Z,17.15
2022-11-03T08:01:43.857Z,19.08
2022-11-03T08:02:50.078Z,25.38
2022-11-03T08:03:52.656Z,16.95
2022-11-03T08:04:54.063Z,16.52
2022-11-03T08:05:55.465Z,15.32
2022-11-03T08:06:57.300Z,25.63
2022-11-03T08:08:00.105Z,16.20
2022-11-03T08:09:01.684Z,22.67
2022-11-03T08:10:03.415Z,17.63
2022-11-03T08:11:05.590Z,23.50
2022-11-03T08:12:07.330Z,20.30
2022-11-03T08:13:08.976Z,22.83
2022-11-03T08:14:10.586Z,25.63
2022-11-03T08:15:12.019Z,20.42
2022-11-03T08:16:13.426Z,26.25
2022-11-03T08:17:14.990Z,22.13
2022-11-03T08:18:16.443Z,13.43
2022-11-03T08:19:17.872Z,18.13
2022-11-03T08:20:19.312Z,15.43
2022-11-03T08:21:20.746Z,21.50
2022-11-03T08:22:22.174Z,20.13
2022-11-03T08:23:26.336Z,17.05
2022-11-03T08:24:28.128Z,20.75
2022-11-03T08:25:29.580Z,14.85
2022-11-03T08:26:31.004Z,16.23
2022-11-03T08:27:32.488Z,22.75
2022-11-03T08:28:34.341Z,12.23
2022-11-03T08:29:35.840Z,26.88
2022-11-03T08:30:37.278Z,22.70
2022-11-03T08:31:38.751Z,18.95
2022-11-03T08:32:40.182Z,14.00
2022-11-03T08:33:41.651Z,27.13
2022-11-03T08:34:43.228Z,20.52
2022-11-03T08:35:44.700Z,13.13
2022-11-03T08:36:46.518Z,13.52
2022-11-03T08:37:48.011Z,30.63
2022-11-03T08:38:50.832Z,38.55
2022-11-03T08:39:52.242Z,16.95
2022-11-03T08:40:55.388Z,17.13
2022-11-03T08:41:56.909Z,17.65
2022-11-03T08:42:58.544Z,13.35
2022-11-03T08:43:59.968Z,17.27
2022-11-03T08:45:01.836Z,18.67
2022-11-03T08:46:15.466Z,19.60
2022-11-03T08:47:18.999Z,20.33
2022-11-03T08:48:20.734Z,21.75
2022-11-03T08:49:22.162Z,20.75
2022-11-03T08:50:23.986Z,20.92
2022-11-03T08:51:25.443Z,23.92
2022-11-03T08:52:26.931Z,13.73
2022-11-03T08:53:28.386Z,19.75
2022-11-03T08:54:31.145Z,15.18
2022-11-03T08:55:32.597Z,18.67
2022-11-03T08:56:34.051Z,24.27
2022-11-03T08:57:35.475Z,21.80
2022-11-03T08:58:36.907Z,15.65
2022-11-03T08:59:38.340Z,18.27
2022-11-03T09:00:41.168Z,18.35
2022-11-03T09:01:42.938Z,20.75
2022-11-03T09:02:44.888Z,17.00
2022-11-03T09:03:46.465Z,17.95
2022-11-03T09:04:48.054Z,13.77
2022-11-03T09:05:49.779Z,19.30
2022-11-03T09:06:51.214Z,25.02
2022-11-03T09:10:42.189Z,15.80
2022-11-03T09:11:43.962Z,11.60
2022-11-03T09:12:45.417Z,21.73
2022-11-03T09:13:46.839Z,20.83
2022-11-03T09:14:48.331Z,22.13
2022-11-03T09:15:49.956Z,18.58
2022-11-03T09:16:51.440Z,19.92
2022-11-03T09:17:53.000Z,19.10
2022-11-03T09:18:54.469Z,17.70
2022-11-03T09:19:55.920Z,17.33
2022-11-03T09:20:57.331Z,17.77
2022-11-03T09:21:58.783Z,16.35
2022-11-03T09:23:00.684Z,16.17
2022-11-03T09:24:02.141Z,18.88
2022-11-03T09:25:03.960Z,16.48
2022-11-03T09:26:06.848Z,15.00
2022-11-03T09:27:08.491Z,15.82
2022-11-03T09:28:10.204Z,18.73
2022-11-03T09:29:11.821Z,16.90
2022-11-03T09:30:14.307Z,15.00
2022-11-03T09:31:16.220Z,13.02
2022-11-03T09:32:22.768Z,19.38
2022-11-03T09:33:24.876Z,15.18
2022-11-03T09:34:26.294Z,13.82
2022-11-03T09:35:27.716Z,14.70
2022-11-03T09:36:29.153Z,15.27
2022-11-03T09:37:31.668Z,20.33
2022-11-03T09:38:33.117Z,13.27
2022-11-03T09:39:34.619Z,14.38
2022-11-03T09:40:36.301Z,13.60
2022-11-03T09:41:57.946Z,17.00
2022-11-03T09:43:00.569Z,16.60
2022-11-03T09:44:02.474Z,14.60
2022-11-03T09:45:04.894Z,19.58
2022-11-03T09:46:06.356Z,15.75
2022-11-03T09:47:17.300Z,13.13
2022-11-03T09:48:18.768Z,11.50
2022-11-03T09:49:21.234Z,14.00
2022-11-03T09:50:22.928Z,12.27
2022-11-03T09:51:26.906Z,13.00
2022-11-03T09:52:28.376Z,14.15
2022-11-03T09:53:30.955Z,14.10
2022-11-03T09:54:32.699Z,14.60
2022-11-03T09:55:35.035Z,18.13
2022-11-03T09:56:36.563Z,26.48
2022-11-03T09:57:39.304Z,16.85
2022-11-03T09:58:41.244Z,14.88
2022-11-03T09:59:44.710Z,16.73
2022-11-03T10:00:46.320Z,19.52
2022-11-03T10:01:50.237Z,17.75
2022-11-03T10:02:51.734Z,21.73
2022-11-03T10:03:57.334Z,22.08
2022-11-03T10:05:04.282Z,21.73
2022-11-03T10:06:11.037Z,24.52
2022-11-03T10:07:15.883Z,22.55
2022-11-03T10:08:24.099Z,21.70
2022-11-03T10:09:27.749Z,20.05
2022-11-03T10:10:30.218Z,18.48
2022-11-03T10:11:31.700Z,17.92
2022-11-03T10:12:37.325Z,19.70
2022-11-03T10:13:42.495Z,20.23
2022-11-03T10:14:45.843Z,22.08
2022-11-03T10:15:47.297Z,24.77
2022-11-03T10:16:55.720Z,21.42
2022-11-03T10:17:57.333Z,21.35
2022-11-03T10:18:58.862Z,25.17
2022-11-03T10:20:01.945Z,28.73
2022-11-03T10:21:06.052Z,23.90
2022-11-03T10:22:07.659Z,24.58
2022-11-03T10:23:09.403Z,23.50
2022-11-03T10:24:11.679Z,21.92
2022-11-03T10:25:33.294Z,21.67
2022-11-03T10:26:44.267Z,20.13
2022-11-03T10:27:45.733Z,22.05
2022-11-03T10:28:59.720Z,19.70
2022-11-03T10:30:06.805Z,18.38
2022-11-03T10:31:19.666Z,19.13
2022-11-03T10:32:30.129Z,18.63
2022-11-03T10:33:33.201Z,22.33
2022-11-03T10:34:36.370Z,20.98
2022-11-03T10:35:37.815Z,22.15
2022-11-03T10:36:39.259Z,23.83
2022-11-03T10:37:40.698Z,24.48
2022-11-03T10:38:42.401Z,27.08
2022-11-03T10:39:44.741Z,26.15
2022-11-03T10:40:48.454Z,24.33
2022-11-03T10:41:56.221Z,22.05
2022-11-03T10:42:58.790Z,25.65
2022-11-03T10:44:04.167Z,22.55
2022-11-03T10:45:15.734Z,23.90
2022-11-03T10:47:41.306Z,23.65
2022-11-03T10:48:42.943Z,23.23
2022-11-03T10:49:44.376Z,22.35
2022-11-03T10:50:45.863Z,21.60
2022-11-03T10:51:49.249Z,21.20
2022-11-03T10:52:51.231Z,21.30
2022-11-03T10:53:52.713Z,20.70
2022-11-03T10:54:57.525Z,22.13
2022-11-03T10:55:59.541Z,22.13
2022-11-03T10:57:01.252Z,22.42
2022-11-03T10:58:02.752Z,21.00
2022-11-03T10:59:05.613Z,22.90
2022-11-03T11:00:12.740Z,22.02
2022-11-03T11:01:14.354Z,24.20
2022-11-03T11:02:19.299Z,22.63
2022-11-03T11:03:21.213Z,23.40
2022-11-03T11:04:22.857Z,23.70
2022-11-03T11:05:24.747Z,23.33
2022-11-03T11:06:28.405Z,24.80
2022-11-03T11:07:34.432Z,25.23
2022-11-03T11:08:37.498Z,22.08
2022-11-03T11:09:38.964Z,23.90
2022-11-03T11:10:44.280Z,22.02
2022-11-03T11:11:59.167Z,22.13
2022-11-03T11:13:06.870Z,21.85
2022-11-03T11:14:23.525Z,22.17
2022-11-03T11:15:40.977Z,21.45
2022-11-03T11:16:50.436Z,22.45
2022-11-03T11:17:51.895Z,21.60
2022-11-03T11:19:11.228Z,22.33
2022-11-03T11:20:34.931Z,21.60
2022-11-03T11:22:00.541Z,21.17
2022-11-03T11:23:46.705Z,19.77
2022-11-03T11:24:59.299Z,21.95
2022-11-03T11:26:14.266Z,20.70
2022-11-03T11:27:58.322Z,20.73
2022-11-03T11:29:42.854Z,20.48
2022-11-03T11:31:00.507Z,20.83
2022-11-03T11:32:50.751Z,20.08
2022-11-03T11:34:40.651Z,19.65
2022-11-03T11:36:26.557Z,24.20
2022-11-03T11:37:36.036Z,26.83
2022-11-03T11:39:04.464Z,26.58
2022-11-03T11:40:13.197Z,27.65
2022-11-03T11:41:14.691Z,29.02
2022-11-03T11:42:17.092Z,24.33
2022-11-03T11:43:26.176Z,27.75
2022-11-03T11:44:47.619Z,26.42
2022-11-03T11:46:38.451Z,24.33
2022-11-03T11:47:48.498Z,22.95
2022-11-03T11:48:50.758Z,23.27
2022-11-03T11:50:11.991Z,23.30
2022-11-03T11:51:13.498Z,24.13
2022-11-03T11:52:18.766Z,21.42
2022-11-03T11:53:26.137Z,20.83
2022-11-03T11:54:30.618Z,20.92
2022-11-03T11:55:38.312Z,20.48
2022-11-03T11:56:42.511Z,19.88
2022-11-03T11:57:44.762Z,21.45
2022-11-03T11:58:48.961Z,19.58
2022-11-03T11:59:51.482Z,19.13
2022-11-03T12:00:58.266Z,18.98
2022-11-03T12:02:01.886Z,19.75
2022-11-03T12:03:06.308Z,17.38
2022-11-03T12:05:23.290Z,17.35
2022-11-03T12:06:34.257Z,16.95
2022-11-03T12:07:36.666Z,16.75
2022-11-03T12:08:38.338Z,16.80
2022-11-03T12:09:40.088Z,16.48
2022-11-03T12:10:52.455Z,16.52
2022-11-03T12:11:56.497Z,17.00
2022-11-03T12:12:59.894Z,16.23
2022-11-03T12:14:01.373Z,15.88
2022-11-03T12:15:03.059Z,15.35
2022-11-03T12:16:04.993Z,16.13
2022-11-03T12:17:33.265Z,15.05
2022-11-03T12:18:40.793Z,15.38
2022-11-03T12:19:45.920Z,15.80
2022-11-03T12:20:47.385Z,16.10
2022-11-03T12:21:49.933Z,17.33
2022-11-03T12:22:51.379Z,18.30
2022-11-03T12:23:52.841Z,18.70
2022-11-03T12:24:55.155Z,17.65
2022-11-03T12:25:56.597Z,19.20
2022-11-03T12:26:58.581Z,20.42
2022-11-03T12:28:00.046Z,20.48
2022-11-03T12:29:01.514Z,19.25
2022-11-03T12:30:06.726Z,19.88
2022-11-03T12:31:08.204Z,20.33
2022-11-03T12:32:25.594Z,22.25
2022-11-03T12:33:32.637Z,22.63
2022-11-03T12:34:34.043Z,24.15
2022-11-03T12:35:35.487Z,25.58
2022-11-03T12:36:36.908Z,24.23
2022-11-03T12:37:38.368Z,26.35
2022-11-03T12:38:39.780Z,28.60
2022-11-03T12:39:41.402Z,29.55
2022-11-03T12:40:42.851Z,32.13
2022-11-03T12:41:44.292Z,31.30
2022-11-03T12:42:45.737Z,33.72
2022-11-03T12:43:48.493Z,37.10
2022-11-03T12:44:50.251Z,33.72
2022-11-03T12:45:51.691Z,37.75
2022-11-03T12:46:53.128Z,34.80
2022-11-03T12:47:54.596Z,34.78
2022-11-03T12:48:57.377Z,32.53
2022-11-03T12:49:58.830Z,35.30
2022-11-03T12:51:00.273Z,31.15
2022-11-03T12:52:05.355Z,26.92
2022-11-03T12:53:09.797Z,25.90
2022-11-03T12:54:11.438Z,26.40
2022-11-03T12:55:12.971Z,24.55
2022-11-03T12:56:15.306Z,26.50
2022-11-03T12:57:16.909Z,25.45
2022-11-03T12:58:18.373Z,24.30
2022-11-03T12:59:19.853Z,24.65
2022-11-03T13:00:21.529Z,23.65
2022-11-03T13:01:23.083Z,23.65
2022-11-03T13:02:24.828Z,24.80
2022-11-03T13:03:26.523Z,25.33
2022-11-03T13:04:29.314Z,23.88
2022-11-03T13:05:30.759Z,22.55
2022-11-03T13:06:32.843Z,21.60
2022-11-03T13:07:35.120Z,22.60
2022-11-03T13:08:37.715Z,25.40
2022-11-03T13:09:39.236Z,22.52
2022-11-03T13:10:40.663Z,24.35
2022-11-03T13:11:42.087Z,22.58
2022-11-03T13:12:43.560Z,23.67
2022-11-03T13:13:45.229Z,23.17
2022-11-03T13:14:48.726Z,21.83
2022-11-03T13:15:50.502Z,22.50
2022-11-03T13:16:51.975Z,21.15
2022-11-03T13:18:12.210Z,22.58
2022-11-03T13:19:14.871Z,21.48
2022-11-03T13:20:17.712Z,22.48
2022-11-03T13:21:19.159Z,23.52
2022-11-03T13:22:20.783Z,21.75
2022-11-03T13:23:23.247Z,22.45
2022-11-03T13:24:24.795Z,19.33
2022-11-03T13:25:26.347Z,20.42
2022-11-03T13:26:27.893Z,19.60
2022-11-03T13:27:29.331Z,19.08
2022-11-03T13:28:30.776Z,21.63
2022-11-03T13:29:35.312Z,28.50
2022-11-03T13:30:37.257Z,21.05
2022-11-03T13:31:38.911Z,20.00
2022-11-03T13:32:40.319Z,19.83
2022-11-03T13:33:41.739Z,19.63
2022-11-03T13:34:43.225Z,17.90
2022-11-03T13:35:46.059Z,17.77
2022-11-03T13:36:47.613Z,20.60
2022-11-03T13:37:49.082Z,20.17
2022-11-03T13:38:50.500Z,18.83
2022-11-03T13:39:51.912Z,17.98
2022-11-03T13:40:59.186Z,18.60
2022-11-03T13:42:05.289Z,19.02
2022-11-03T13:43:07.182Z,18.75
2022-11-03T13:44:08.873Z,18.55
2022-11-03T13:45:10.956Z,19.48
2022-11-03T13:46:12.360Z,20.98
2022-11-03T13:47:13.865Z,24.50
2022-11-03T13:49:21.421Z,26.92
2022-11-03T13:50:07.687Z,20.33
2022-11-03T13:50:59.485Z,23.65
2022-11-03T13:52:01.205Z,25.80
2022-11-03T13:55:45.561Z,28.65
2022-11-03T13:59:30.060Z,32.58
2022-11-03T14:00:31.504Z,28.15
2022-11-03T14:01:33.517Z,28.67
2022-11-03T14:05:18.787Z,27.10